createdAt,value
2018-09-27T00:00:05.720Z,6.80
2018-09-27T00:02:34.226Z,9.60
2018-09-27T00:05:02.413Z,5.57
2018-09-27T00:07:30.603Z,9.00
2018-09-27T00:09:58.769Z,7.37
2018-09-27T00:12:26.978Z,6.83
2018-09-27T00:14:55.161Z,4.30
2018-09-27T00:17:23.352Z,8.27
2018-09-27T00:19:51.609Z,11.40
2018-09-27T00:22:19.792Z,5.67
2018-09-27T00:24:48.000Z,7.23
2018-09-27T00:27:16.250Z,7.17
2018-09-27T00:29:44.458Z,6.37
2018-09-27T00:32:12.663Z,5.83
2018-09-27T00:34:40.894Z,7.47
2018-09-27T00:37:09.104Z,5.80
2018-09-27T00:39:37.321Z,6.50
2018-09-27T00:42:05.525Z,6.90
2018-09-27T00:44:33.724Z,4.83
2018-09-27T00:47:01.913Z,8.87
2018-09-27T00:49:30.085Z,6.10
2018-09-27T00:51:58.268Z,7.30
2018-09-27T00:54:26.445Z,5.07
2018-09-27T00:56:54.680Z,5.90
2018-09-27T00:59:22.929Z,5.77
2018-09-27T01:01:51.127Z,7.70
2018-09-27T01:04:19.339Z,5.23
2018-09-27T01:06:47.608Z,8.60
2018-09-27T01:09:15.789Z,5.50
2018-09-27T01:11:44.008Z,7.87
2018-09-27T01:14:12.305Z,4.87
2018-09-27T01:16:40.525Z,5.00
2018-09-27T01:19:09.278Z,8.03
2018-09-27T01:21:37.522Z,5.43
2018-09-27T01:24:05.717Z,6.17
2018-09-27T01:26:33.897Z,7.40
2018-09-27T01:29:02.093Z,8.93
2018-09-27T01:31:30.318Z,6.60
2018-09-27T01:33:58.529Z,6.37
2018-09-27T01:36:26.714Z,7.43
2018-09-27T01:38:54.918Z,6.53
2018-09-27T01:41:23.119Z,5.50
2018-09-27T01:43:51.309Z,3.83
2018-09-27T01:46:19.520Z,5.30
2018-09-27T01:48:47.743Z,7.63
2018-09-27T01:51:15.947Z,4.63
2018-09-27T01:53:44.188Z,6.23
2018-09-27T01:56:12.380Z,3.90
2018-09-27T01:58:40.590Z,7.13
2018-09-27T02:01:08.761Z,6.70
2018-09-27T02:03:36.992Z,5.40
2018-09-27T02:06:05.185Z,5.33
2018-09-27T02:08:33.400Z,8.50
2018-09-27T02:11:01.596Z,6.57
2018-09-27T02:13:29.806Z,5.73
2018-09-27T02:15:58.065Z,5.30
2018-09-27T02:18:26.275Z,5.77
2018-09-27T02:20:54.469Z,5.33
2018-09-27T02:23:22.677Z,5.40
2018-09-27T02:25:50.870Z,6.17
2018-09-27T02:28:19.053Z,5.13
2018-09-27T02:30:47.259Z,6.80
2018-09-27T02:33:15.428Z,4.73
2018-09-27T02:35:43.691Z,9.40
2018-09-27T02:38:11.866Z,11.07
2018-09-27T02:40:40.091Z,8.67
2018-09-27T02:43:08.268Z,6.23
2018-09-27T02:45:36.505Z,9.80
2018-09-27T02:48:04.681Z,6.13
2018-09-27T02:50:32.894Z,4.10
2018-09-27T02:53:01.079Z,5.57
2018-09-27T02:55:29.293Z,6.93
2018-09-27T02:57:57.561Z,8.77
2018-09-27T03:00:25.779Z,8.93
2018-09-27T03:02:53.984Z,4.10
2018-09-27T03:05:22.222Z,7.47
2018-09-27T03:07:50.430Z,8.03
2018-09-27T03:10:18.669Z,7.67
2018-09-27T03:12:46.902Z,4.03
2018-09-27T03:15:15.121Z,4.40
2018-09-27T03:17:43.353Z,11.07
2018-09-27T03:20:11.545Z,5.53
2018-09-27T03:22:39.741Z,5.30
2018-09-27T03:25:07.935Z,7.97
2018-09-27T03:27:36.126Z,7.37
2018-09-27T03:30:04.321Z,4.80
2018-09-27T03:32:32.549Z,6.50
2018-09-27T03:35:00.795Z,5.23
2018-09-27T03:37:29.001Z,7.20
2018-09-27T03:39:57.252Z,5.43
2018-09-27T03:42:25.472Z,5.50
2018-09-27T03:44:53.698Z,5.43
2018-09-27T03:47:21.955Z,5.90
2018-09-27T03:49:50.202Z,4.57
2018-09-27T03:52:18.420Z,6.17
2018-09-27T03:54:46.633Z,5.73
2018-09-27T03:57:14.841Z,4.33
2018-09-27T03:59:43.063Z,7.43
2018-09-27T04:02:11.444Z,10.30
2018-09-27T04:04:39.645Z,4.97
2018-09-27T04:07:07.841Z,7.97
2018-09-27T04:09:36.188Z,9.33
2018-09-27T04:12:04.407Z,10.17
2018-09-27T04:14:32.587Z,6.83
2018-09-27T04:17:00.829Z,7.03
2018-09-27T04:19:29.032Z,8.87
2018-09-27T04:21:57.242Z,7.43
2018-09-27T04:24:25.417Z,12.30
2018-09-27T04:26:53.613Z,7.63
2018-09-27T04:29:21.830Z,7.13
2018-09-27T04:31:50.109Z,5.10
2018-09-27T04:34:18.308Z,6.33
2018-09-27T04:36:46.543Z,5.30
2018-09-27T04:39:14.733Z,8.00
2018-09-27T04:41:42.945Z,6.90
2018-09-27T04:44:12.017Z,6.30
2018-09-27T04:46:40.257Z,6.60
2018-09-27T04:49:08.467Z,7.07
2018-09-27T04:51:36.717Z,6.60
2018-09-27T04:54:04.933Z,6.27
2018-09-27T04:56:33.190Z,5.63
2018-09-27T04:59:01.425Z,5.87
2018-09-27T05:01:29.632Z,5.43
2018-09-27T05:03:57.907Z,6.97
2018-09-27T05:06:26.197Z,5.53
2018-09-27T05:08:55.168Z,7.10
2018-09-27T05:11:23.460Z,6.37
2018-09-27T05:13:51.644Z,7.67
2018-09-27T05:16:19.812Z,6.00
2018-09-27T05:18:47.997Z,7.47
2018-09-27T05:21:16.253Z,6.73
2018-09-27T05:23:44.412Z,7.00
2018-09-27T05:26:12.584Z,11.50
2018-09-27T05:28:40.744Z,8.07
2018-09-27T05:31:08.941Z,8.60
2018-09-27T05:33:37.137Z,6.33
2018-09-27T05:36:05.281Z,6.93
2018-09-27T05:38:33.447Z,6.63
2018-09-27T05:41:01.611Z,9.27
2018-09-27T05:43:29.777Z,6.57
2018-09-27T05:45:57.956Z,6.43
2018-09-27T05:48:26.160Z,7.13
2018-09-27T05:50:54.464Z,5.60
2018-09-27T05:53:22.609Z,7.00
2018-09-27T05:55:50.812Z,7.50
2018-09-27T05:58:18.948Z,10.37
2018-09-27T06:00:47.125Z,5.33
2018-09-27T06:03:15.281Z,4.90
2018-09-27T06:05:43.425Z,8.20
2018-09-27T06:08:11.580Z,6.20
2018-09-27T06:10:39.764Z,8.70
2018-09-27T06:13:07.925Z,9.57
2018-09-27T06:15:36.379Z,9.60
2018-09-27T06:18:04.541Z,5.37
2018-09-27T06:20:32.712Z,5.33
2018-09-27T06:23:00.872Z,3.83
2018-09-27T06:25:29.108Z,10.43
2018-09-27T06:27:57.249Z,5.03
2018-09-27T06:30:25.413Z,6.83
2018-09-27T06:32:53.572Z,6.33
2018-09-27T06:35:21.764Z,5.13
2018-09-27T06:37:49.932Z,8.40
2018-09-27T06:40:18.163Z,6.67
2018-09-27T06:42:46.332Z,9.27
2018-09-27T06:45:14.484Z,11.77
2018-09-27T06:47:42.676Z,7.60
2018-09-27T06:50:10.830Z,6.67
2018-09-27T06:52:38.980Z,13.00
2018-09-27T06:55:07.339Z,5.37
2018-09-27T06:57:35.368Z,6.67
2018-09-27T07:00:03.684Z,5.67
2018-09-27T07:02:31.891Z,6.10
2018-09-27T07:05:00.079Z,10.07
2018-09-27T07:07:28.525Z,10.57
2018-09-27T07:09:56.678Z,6.77
2018-09-27T07:12:24.970Z,6.53
2018-09-27T07:14:53.006Z,5.10
2018-09-27T07:17:21.156Z,11.97
2018-09-27T07:19:49.324Z,4.93
2018-09-27T07:22:17.492Z,7.37
2018-09-27T07:24:45.677Z,6.17
2018-09-27T07:27:14.377Z,7.73
2018-09-27T07:29:42.569Z,8.13
2018-09-27T07:32:10.745Z,5.37
2018-09-27T07:34:38.916Z,4.87
2018-09-27T07:37:07.161Z,8.07
2018-09-27T07:39:35.330Z,11.27
2018-09-27T07:42:03.585Z,7.03
2018-09-27T07:44:31.836Z,9.57
2018-09-27T07:46:59.923Z,7.53
2018-09-27T07:49:28.118Z,7.50
2018-09-27T07:51:56.298Z,9.03
2018-09-27T07:54:24.592Z,10.40
2018-09-27T07:56:52.686Z,8.73
2018-09-27T07:59:20.892Z,10.03
2018-09-27T08:01:49.095Z,9.10
2018-09-27T08:04:17.353Z,5.67
2018-09-27T08:06:45.473Z,8.57
2018-09-27T08:09:13.804Z,8.10
2018-09-27T08:11:42.035Z,6.20
2018-09-27T08:14:10.160Z,6.97
2018-09-27T08:16:38.357Z,9.07
2018-09-27T08:19:06.580Z,8.13
2018-09-27T08:21:34.762Z,9.33
2018-09-27T08:24:03.028Z,7.53
2018-09-27T08:26:31.146Z,10.10
2018-09-27T08:28:59.314Z,9.70
2018-09-27T08:31:27.540Z,6.97
2018-09-27T08:33:55.713Z,7.27
2018-09-27T08:36:23.914Z,6.80
2018-09-27T08:38:51.956Z,7.53
2018-09-27T08:41:20.043Z,7.50
2018-09-27T08:43:48.241Z,9.00
2018-09-27T08:46:16.402Z,6.93
2018-09-27T08:48:44.961Z,5.53
2018-09-27T08:51:13.149Z,7.37
2018-09-27T08:53:41.088Z,9.83
2018-09-27T08:56:09.428Z,6.83
2018-09-27T08:58:37.457Z,9.57
2018-09-27T09:01:05.675Z,9.53
2018-09-27T09:03:33.898Z,11.73
2018-09-27T09:06:02.070Z,9.43
2018-09-27T09:08:30.286Z,9.63
2018-09-27T09:10:58.482Z,8.83
2018-09-27T09:13:26.822Z,8.53
2018-09-27T09:15:54.952Z,8.73
2018-09-27T09:18:23.160Z,7.33
2018-09-27T09:20:51.319Z,9.20
2018-09-27T09:23:19.500Z,8.57
2018-09-27T09:25:47.773Z,7.42
2018-09-27T09:28:15.837Z,9.87
2018-09-27T09:30:44.017Z,7.45
2018-09-27T09:33:12.176Z,8.23
2018-09-27T09:35:40.375Z,6.78
2018-09-27T09:38:08.557Z,8.00
2018-09-27T09:40:36.716Z,7.00
2018-09-27T09:43:04.908Z,12.28
2018-09-27T09:45:33.072Z,4.50
2018-09-27T09:48:01.272Z,8.45
2018-09-27T09:50:29.437Z,6.00
2018-09-27T09:52:57.732Z,6.53
2018-09-27T09:55:25.920Z,6.17
2018-09-27T09:57:54.133Z,5.37
2018-09-27T10:00:22.345Z,9.95
2018-09-27T10:02:50.601Z,6.87
2018-09-27T10:05:18.829Z,6.83
2018-09-27T10:07:47.080Z,4.90
2018-09-27T10:10:15.262Z,6.58
2018-09-27T10:12:43.460Z,7.15
2018-09-27T10:15:11.731Z,4.45
2018-09-27T10:17:39.955Z,3.85
2018-09-27T10:20:08.158Z,3.85
2018-09-27T10:22:36.377Z,3.20
2018-09-27T10:25:04.634Z,3.08
2018-09-27T10:27:32.913Z,5.62
2018-09-27T10:30:01.070Z,4.60
2018-09-27T10:32:29.271Z,5.95
2018-09-27T10:34:57.473Z,3.83
2018-09-27T10:37:25.672Z,4.58
2018-09-27T10:39:53.872Z,4.08
2018-09-27T10:42:22.051Z,9.38
2018-09-27T10:44:50.393Z,6.08
2018-09-27T10:47:18.503Z,4.05
2018-09-27T10:49:46.669Z,6.05
2018-09-27T10:52:14.880Z,7.08
2018-09-27T10:54:43.076Z,4.20
2018-09-27T10:57:11.322Z,5.12
2018-09-27T10:59:39.466Z,4.45
2018-09-27T11:02:07.740Z,4.75
2018-09-27T11:04:35.914Z,4.00
2018-09-27T11:07:04.417Z,4.00
2018-09-27T11:09:32.575Z,3.95
2018-09-27T11:12:01.344Z,3.35
2018-09-27T11:14:29.521Z,5.28
2018-09-27T11:16:57.676Z,5.75
2018-09-27T11:19:25.836Z,2.70
2018-09-27T11:21:54.051Z,4.12
2018-09-27T11:24:22.192Z,5.10
2018-09-27T11:26:50.392Z,4.70
2018-09-27T11:29:23.854Z,4.87
2018-09-27T11:31:57.464Z,4.83
2018-09-27T11:34:25.633Z,2.33
2018-09-27T11:36:53.804Z,2.75
2018-09-27T11:39:21.981Z,5.58
2018-09-27T11:41:50.121Z,6.40
2018-09-27T11:44:20.228Z,3.80
2018-09-27T11:46:48.405Z,6.05
2018-09-27T11:49:16.756Z,9.05
2018-09-27T11:51:44.748Z,3.92
2018-09-27T11:54:12.997Z,4.67
2018-09-27T11:56:41.192Z,2.08
2018-09-27T11:59:09.534Z,7.25
2018-09-27T12:01:37.760Z,3.37
2018-09-27T12:04:05.924Z,2.15
2018-09-27T12:06:34.118Z,2.30
2018-09-27T12:09:02.275Z,5.83
2018-09-27T12:11:30.428Z,3.30
2018-09-27T12:13:58.603Z,4.08
2018-09-27T12:16:26.800Z,3.58
2018-09-27T12:18:54.987Z,2.77
2018-09-27T12:21:23.155Z,1.98
2018-09-27T12:23:51.300Z,2.92
2018-09-27T12:26:19.515Z,2.47
2018-09-27T12:28:47.690Z,2.62
2018-09-27T12:31:15.911Z,3.40
2018-09-27T12:33:44.262Z,2.02
2018-09-27T12:36:12.446Z,4.12
2018-09-27T12:38:40.666Z,3.10
2018-09-27T12:41:08.812Z,1.95
2018-09-27T12:43:37.021Z,3.22
2018-09-27T12:46:05.326Z,2.08
2018-09-27T12:48:33.457Z,2.40
2018-09-27T12:51:01.707Z,2.10
2018-09-27T12:53:29.803Z,3.00
2018-09-27T12:55:58.136Z,2.87
2018-09-27T12:58:26.342Z,1.72
2018-09-27T13:00:54.548Z,2.00
2018-09-27T13:03:22.740Z,1.30
2018-09-27T13:05:50.927Z,2.33
2018-09-27T13:08:19.106Z,1.12
2018-09-27T13:10:47.270Z,3.10
2018-09-27T13:13:15.519Z,2.42
2018-09-27T13:15:43.664Z,2.92
2018-09-27T13:18:11.921Z,2.70
2018-09-27T13:20:40.143Z,1.07
2018-09-27T13:23:08.337Z,2.45
2018-09-27T13:25:36.524Z,2.52
2018-09-27T13:28:04.665Z,3.02
2018-09-27T13:30:32.816Z,3.77
2018-09-27T13:33:01.026Z,8.73
2018-09-27T13:35:29.277Z,2.08
2018-09-27T13:37:57.417Z,2.58
2018-09-27T13:40:25.605Z,2.22
2018-09-27T13:42:53.809Z,2.07
2018-09-27T13:45:21.926Z,3.87
2018-09-27T13:47:50.087Z,2.75
2018-09-27T13:50:18.264Z,2.20
2018-09-27T13:52:46.463Z,4.10
2018-09-27T13:55:14.701Z,3.70
2018-09-27T13:57:42.893Z,4.73
2018-09-27T14:00:11.327Z,3.63
2018-09-27T14:02:39.536Z,2.27
2018-09-27T14:05:07.951Z,3.40
2018-09-27T14:07:36.101Z,2.90
2018-09-27T14:10:04.292Z,2.25
2018-09-27T14:12:32.462Z,3.30
2018-09-27T14:15:00.661Z,3.23
2018-09-27T14:17:28.833Z,4.00
2018-09-27T14:19:57.009Z,5.73
2018-09-27T14:22:25.216Z,2.22
2018-09-27T14:24:53.407Z,2.50
2018-09-27T14:27:21.561Z,2.97
2018-09-27T14:29:49.758Z,2.63
2018-09-27T14:32:17.948Z,2.73
2018-09-27T14:34:46.129Z,1.67
2018-09-27T14:37:14.313Z,1.83
2018-09-27T14:39:42.518Z,1.70
2018-09-27T14:42:10.695Z,4.60
2018-09-27T14:44:38.870Z,1.50
2018-09-27T14:47:07.089Z,2.97
2018-09-27T14:49:35.268Z,1.60
2018-09-27T14:52:03.524Z,2.03
2018-09-27T14:54:31.720Z,1.30
2018-09-27T14:56:59.977Z,1.67
2018-09-27T14:59:28.271Z,3.65
2018-09-27T15:01:56.577Z,3.70
2018-09-27T15:04:24.736Z,2.27
2018-09-27T15:06:52.995Z,1.60
2018-09-27T15:09:21.299Z,1.98
2018-09-27T15:11:49.486Z,3.92
2018-09-27T15:14:17.710Z,1.93
2018-09-27T15:16:46.646Z,1.57
2018-09-27T15:19:14.892Z,1.77
2018-09-27T15:21:43.112Z,1.50
2018-09-27T15:24:11.332Z,3.83
2018-09-27T15:26:39.541Z,2.25
2018-09-27T15:29:07.749Z,3.22
2018-09-27T15:31:36.022Z,3.63
2018-09-27T15:34:04.233Z,2.50
2018-09-27T15:36:32.622Z,2.93
2018-09-27T15:39:00.812Z,1.83
2018-09-27T15:41:29.467Z,1.57
2018-09-27T15:43:57.709Z,1.70
2018-09-27T15:46:25.889Z,2.33
2018-09-27T15:48:54.093Z,1.70
2018-09-27T15:51:22.573Z,3.13
2018-09-27T15:53:50.757Z,3.17
2018-09-27T15:56:19.022Z,2.33
2018-09-27T15:58:47.264Z,1.57
2018-09-27T16:01:15.539Z,2.00
2018-09-27T16:03:43.751Z,2.60
2018-09-27T16:06:12.508Z,2.93
2018-09-27T16:08:40.726Z,3.23
2018-09-27T16:11:09.025Z,3.33
2018-09-27T16:13:37.044Z,2.13
2018-09-27T16:16:05.288Z,2.17
2018-09-27T16:18:33.525Z,2.03
2018-09-27T16:21:01.945Z,2.83
2018-09-27T16:23:30.210Z,7.07
2018-09-27T16:25:58.431Z,5.40
2018-09-27T16:28:26.675Z,3.37
2018-09-27T16:30:54.893Z,5.40
2018-09-27T16:33:23.226Z,3.33
2018-09-27T16:35:51.482Z,3.80
2018-09-27T16:38:19.722Z,3.83
2018-09-27T16:40:48.002Z,3.10
2018-09-27T16:43:15.959Z,2.60
2018-09-27T16:45:44.157Z,8.03
2018-09-27T16:48:12.363Z,6.53
2018-09-27T16:50:40.597Z,8.40
2018-09-27T16:53:08.871Z,4.90
2018-09-27T16:55:37.152Z,8.97
2018-09-27T16:58:05.344Z,4.90
2018-09-27T17:00:33.273Z,3.63
2018-09-27T17:03:01.487Z,5.23
2018-09-27T17:05:29.514Z,6.50
2018-09-27T17:07:57.662Z,5.77
2018-09-27T17:10:25.916Z,5.37
2018-09-27T17:12:54.100Z,5.67
2018-09-27T17:15:22.306Z,7.47
2018-09-27T17:17:50.546Z,5.97
2018-09-27T17:20:18.724Z,6.73
2018-09-27T17:22:46.933Z,6.13
2018-09-27T17:25:15.246Z,5.30
2018-09-27T17:27:43.477Z,5.07
2018-09-27T17:30:11.677Z,7.30
2018-09-27T17:32:39.921Z,6.50
2018-09-27T17:35:08.140Z,3.10
2018-09-27T17:37:36.415Z,5.93
2018-09-27T17:40:05.105Z,5.10
2018-09-27T17:42:33.305Z,6.60
2018-09-27T17:45:01.625Z,4.07
2018-09-27T17:47:29.841Z,5.10
2018-09-27T17:49:58.044Z,4.53
2018-09-27T17:52:26.250Z,4.73
2018-09-27T17:54:54.474Z,6.50
2018-09-27T17:57:23.863Z,4.50
2018-09-27T17:59:53.587Z,9.13
2018-09-27T18:02:22.856Z,5.53
2018-09-27T18:04:51.124Z,5.67
2018-09-27T18:07:19.963Z,5.13
2018-09-27T18:09:48.229Z,4.90
2018-09-27T18:12:16.501Z,7.13
2018-09-27T18:14:44.781Z,4.50
2018-09-27T18:17:13.005Z,4.90
2018-09-27T18:19:41.356Z,7.40
2018-09-27T18:22:09.601Z,7.63
2018-09-27T18:24:37.853Z,11.27
2018-09-27T18:27:06.141Z,9.77
2018-09-27T18:29:34.318Z,6.13
2018-09-27T18:32:02.513Z,5.60
2018-09-27T18:34:30.786Z,6.60
2018-09-27T18:36:58.966Z,7.50
2018-09-27T18:39:27.213Z,7.53
2018-09-27T18:41:55.426Z,6.57
2018-09-27T18:44:23.620Z,6.47
2018-09-27T18:46:51.885Z,10.17
2018-09-27T18:49:20.106Z,8.93
2018-09-27T18:51:48.329Z,9.97
2018-09-27T18:54:16.573Z,10.77
2018-09-27T18:56:44.769Z,9.03
2018-09-27T18:59:13.005Z,8.70
2018-09-27T19:01:41.281Z,11.67
2018-09-27T19:04:09.531Z,11.83
2018-09-27T19:06:37.781Z,9.63
2018-09-27T19:09:06.640Z,8.53
2018-09-27T19:11:34.937Z,7.27
2018-09-27T19:14:03.201Z,8.03
2018-09-27T19:16:31.461Z,6.93
2018-09-27T19:18:59.677Z,5.27
2018-09-27T19:21:27.912Z,6.13
2018-09-27T19:23:56.093Z,5.33
2018-09-27T19:26:24.282Z,9.17
2018-09-27T19:28:52.702Z,5.80
2018-09-27T19:31:20.934Z,9.50
2018-09-27T19:33:49.211Z,6.43
2018-09-27T19:36:17.436Z,8.20
2018-09-27T19:38:45.737Z,9.80
2018-09-27T19:41:13.943Z,9.53
2018-09-27T19:43:42.173Z,7.50
2018-09-27T19:46:10.389Z,10.17
2018-09-27T19:48:38.596Z,6.77
2018-09-27T19:51:06.809Z,5.80
2018-09-27T19:53:35.055Z,8.30
2018-09-27T19:56:03.291Z,7.07
2018-09-27T19:58:31.496Z,5.60
2018-09-27T20:00:59.711Z,7.37
2018-09-27T20:03:27.898Z,7.80
2018-09-27T20:05:56.166Z,7.23
2018-09-27T20:08:24.528Z,9.40
2018-09-27T20:10:52.785Z,7.83
2018-09-27T20:13:21.004Z,6.37
2018-09-27T20:15:49.400Z,6.30
2018-09-27T20:18:17.614Z,8.77
2018-09-27T20:20:45.811Z,7.47
2018-09-27T20:23:14.054Z,6.87
2018-09-27T20:25:42.365Z,12.60
2018-09-27T20:28:10.739Z,7.27
2018-09-27T20:30:38.932Z,9.07
2018-09-27T20:33:07.296Z,6.03
2018-09-27T20:35:35.579Z,6.47
2018-09-27T20:38:03.785Z,5.07
2018-09-27T20:40:32.048Z,8.07
2018-09-27T20:43:00.283Z,9.60
2018-09-27T20:45:28.550Z,6.97
2018-09-27T20:47:56.803Z,7.30
2018-09-27T20:50:25.015Z,8.53
2018-09-27T20:52:53.269Z,9.67
2018-09-27T20:55:21.981Z,7.93
2018-09-27T20:57:50.220Z,8.83
2018-09-27T21:00:18.458Z,8.20
2018-09-27T21:02:46.631Z,9.93
2018-09-27T21:05:14.813Z,5.57
2018-09-27T21:07:42.993Z,10.57
2018-09-27T21:10:11.184Z,8.13
2018-09-27T21:12:39.366Z,6.40
2018-09-27T21:15:07.576Z,6.47
2018-09-27T21:17:35.766Z,5.97
2018-09-27T21:20:03.964Z,7.50
2018-09-27T21:22:32.156Z,6.27
2018-09-27T21:25:00.383Z,6.57
2018-09-27T21:27:28.587Z,6.93
2018-09-27T21:29:56.756Z,9.37
2018-09-27T21:32:24.928Z,5.50
2018-09-27T21:34:53.128Z,6.00
2018-09-27T21:37:21.313Z,7.63
2018-09-27T21:39:49.488Z,5.57
2018-09-27T21:42:17.662Z,5.77
2018-09-27T21:44:45.869Z,7.60
2018-09-27T21:47:14.067Z,7.93
2018-09-27T21:49:42.275Z,5.50
2018-09-27T21:52:10.480Z,7.23
2018-09-27T21:54:38.658Z,9.83
2018-09-27T21:57:06.864Z,8.37
2018-09-27T21:59:35.028Z,9.33
2018-09-27T22:02:03.227Z,8.90
2018-09-27T22:04:31.422Z,14.40
2018-09-27T22:06:59.658Z,10.10
2018-09-27T22:09:27.798Z,7.17
2018-09-27T22:11:55.994Z,8.47
2018-09-27T22:14:24.233Z,9.10
2018-09-27T22:16:52.404Z,9.37
2018-09-27T22:19:20.609Z,10.20
2018-09-27T22:21:48.806Z,9.97
2018-09-27T22:24:17.009Z,9.77
2018-09-27T22:26:45.215Z,11.03
2018-09-27T22:29:13.425Z,13.63
2018-09-27T22:31:41.657Z,13.23
2018-09-27T22:34:09.854Z,11.40
2018-09-27T22:36:38.066Z,10.60
2018-09-27T22:39:06.901Z,12.97
2018-09-27T22:41:35.156Z,10.70
2018-09-27T22:44:03.390Z,12.27
2018-09-27T22:46:31.653Z,13.03
2018-09-27T22:48:59.836Z,8.87
2018-09-27T22:51:28.058Z,12.80
2018-09-27T22:53:56.234Z,12.53
2018-09-27T22:56:24.424Z,13.93
2018-09-27T22:58:52.714Z,15.23
2018-09-27T23:01:20.902Z,10.90
2018-09-27T23:03:49.094Z,14.20
2018-09-27T23:06:17.307Z,11.07
2018-09-27T23:08:45.493Z,13.50
2018-09-27T23:11:13.694Z,13.83
2018-09-27T23:13:41.890Z,12.63
2018-09-27T23:16:10.097Z,14.80
2018-09-27T23:18:38.260Z,13.97
2018-09-27T23:21:06.777Z,14.90
2018-09-27T23:23:34.993Z,11.33
2018-09-27T23:26:03.283Z,12.17
2018-09-27T23:28:31.384Z,13.43
2018-09-27T23:30:59.606Z,12.23
2018-09-27T23:33:27.764Z,15.37
2018-09-27T23:35:56.049Z,14.30
2018-09-27T23:38:24.255Z,13.27
2018-09-27T23:40:52.499Z,17.70
2018-09-27T23:43:20.728Z,15.20
2018-09-27T23:45:48.945Z,13.40
2018-09-27T23:48:17.172Z,13.47
2018-09-27T23:50:45.688Z,14.37
2018-09-27T23:53:13.955Z,13.40
2018-09-27T23:55:42.137Z,15.47
2018-09-27T23:58:10.359Z,17.03
